Hanna, WY (82327)

8:16 PM MDT on July 22, 2014 (GMT -0600)
Elk Mountain (KEHY) Elev 7300 ft | 41.73 °N, 106.46 °W | Change Station

Current weather conditions updated 41 minutes ago

Partly Cloudy
Partly Cloudy
84 °F
Feels Like 84 °F
N
4
Wind Variable Wind from NW

Tomorrow is forecast to be Warmer than today.

Today
High -- | Low -- °F
--% Chance of Precip.
Yesterday
High -- | Low -- °F
Precip. -- in
5:50 AM 8:34 PM
Waning Crescent, 13% visible
Pressure 30.39 in
Visibility 10.0 miles
Clouds Overcast 1800 ft
Dew Point 12 °F
Humidity 7%
Rainfall 0.00 in
Snow Depth Not available.
UV 0 out of 12
Pollen 6.00 out of 12
Air Quality Not available.
Flu Activity Not available.
METAR KEHY 230135Z AUTO 31003KT 10SM OVC018 29/M11 A3039 RMK AO2

More Conditions Fewer Conditions

Pressure 30.39 in
Visibility 10.0 miles
Clouds Overcast 1800 ft
Dew Point 12 °F
Humidity 7%
Rainfall 0.00 in
Snow Depth Not available.
UV 0 out of 12
Pollen 6.00 out of 12
Air Quality Not available.
Flu Activity Not available.
METAR KEHY 230135Z AUTO 31003KT 10SM OVC018 29/M11 A3039 RMK AO2

More Conditions Fewer Conditions

10-Day Weather Forecast

Almanac

Astronomy

Jul. 22, 2014 Rise Set
Actual Time 5:50 AM MDT 8:34 PM MDT
Civil Twilight 5:17 AM MDT 9:07 PM MDT
Nautical Twilight 4:36 AM MDT 9:48 PM MDT
Astronomical Twilight 3:49 AM MDT 10:35 PM MDT
Moon 2:25 AM MDT (7/22) 5:14 PM MDT (7/22)
Length of Visible Light 15h 50m
Length of Day
14h 44m
Tomorrow will be 1m 48s shorter.
Waning Crescent, 13% of the Moon is Illuminated
Today
Waning Crescent
Jul 26
New
Aug 3
First Quarter
Aug 10
Full
Aug 17
Last Quarter

Today's Extremes

State Highs State Lows

Community

WunderPhotos

Upload Photos

1,736,452 photos uploaded!

Nearby

Snow Depth

Station Depth Elevation
Casper Mountain 0 in 7850 ft
Sandstone R.S. 14 in 8150 ft
Crow Creek 0 in 8330 ft
Middle Powder 0 in 7760 ft
Townsend Creek 1 in 8700 ft

Earthquake Activity

City Distance Mag. Time & Date
No recent earthquake activity has been reported nearby.
Minimum magnitude displayed is 2.5.

Coastal Water Temperatures

Place Temperature
No Stations Reporting

Nearby Weather Stations

Station Location Temp. Heat Index Dew Point Humidity Wind Precip. Elev Updated Type
MesoWest COMO1 , Kortes Dam, WY 87 °F 84 °F - - North  at  6 mph 0.00 in / hr 6750 ft 7:00 PM MDT MADIS
MesoWest DURR1 , Hanna, WY 87 °F 84 °F - - North  at  - 0.00 in / hr 6879 ft 7:00 PM MDT MADIS
Medicine Bow, WY 79.2 °F 79 °F 49 °F 35% ESE  at  9.0 mph 0.00 in / hr 6646 ft 8:06 PM MDT Normal

Show More Stations Show Fewer Stations